Time;durP1;ratioP1;P1;durP2;ratioP2;P2;SDS_P1;SDS_P2;PMS_P1;PMS_P2;Temp;Humidity;BMP_temperature;BMP_pressure;BME280_temperature;BME280_humidity;BME280_pressure;Samples;Min_cycle;Max_cycle;Signal;HPM_P1;HPM_P2
2022/04/05 00:00:36;;;;;;;7.00;4.37;;;7.10;1.00;;;;;;4993485;28;20267;-72
2022/04/05 00:03:02;;;;;;;3.57;3.10;;;;;;;;;;4995853;28;20185;-73
2022/04/05 00:05:28;;;;;;;6.10;4.40;;;7.10;1.00;;;;;;4995952;28;20457;-72
2022/04/05 00:07:54;;;;;;;6.73;5.23;;;7.00;1.00;;;;;;4996510;28;20431;-73
2022/04/05 00:10:21;;;;;;;5.03;4.30;;;7.00;1.00;;;;;;4996132;28;20236;-74
2022/04/05 00:12:47;;;;;;;5.53;3.87;;;7.10;1.00;;;;;;4995826;28;20528;-73
2022/04/05 00:15:12;;;;;;;11.33;4.40;;;7.10;1.00;;;;;;4995956;28;20516;-74
2022/04/05 00:17:38;;;;;;;6.97;4.87;;;;;;;;;;4996055;28;20637;-73
2022/04/05 00:20:05;;;;;;;4.83;4.33;;;7.10;1.00;;;;;;4995930;28;20632;-74
2022/04/05 00:22:31;;;;;;;13.70;3.60;;;7.10;1.00;;;;;;4995876;28;20437;-72
2022/04/05 00:24:56;;;;;;;7.40;4.97;;;7.10;1.00;;;;;;4995792;28;20524;-72
2022/04/05 00:27:22;;;;;;;16.53;4.97;;;7.10;1.00;;;;;;4995781;28;20229;-72
2022/04/05 00:29:47;;;;;;;12.27;5.10;;;7.20;1.00;;;;;;4995869;28;20220;-72
2022/04/05 00:32:13;;;;;;;4.33;3.90;;;7.10;1.00;;;;;;4995288;28;20220;-72
2022/04/05 00:34:40;;;;;;;8.10;4.30;;;7.10;1.00;;;;;;4995723;28;20181;-72
2022/04/05 00:37:05;;;;;;;6.60;3.67;;;7.20;1.00;;;;;;4995524;28;20203;-72
2022/04/05 00:39:31;;;;;;;6.83;4.90;;;7.10;1.00;;;;;;4995986;28;20425;-72
2022/04/05 00:41:57;;;;;;;6.37;4.80;;;;;;;;;;4994835;28;20561;-73
2022/04/05 00:44:23;;;;;;;6.97;4.20;;;7.00;1.00;;;;;;4995324;28;20193;-72
2022/04/05 00:46:52;;;;;;;6.23;4.90;;;7.00;1.00;;;;;;4995286;28;20868;-71
2022/04/05 00:49:29;;;;;;;8.63;5.67;;;7.00;1.00;;;;;;4994939;28;20433;-72
2022/04/05 00:51:55;;;;;;;5.30;3.43;;;7.00;1.00;;;;;;4983432;28;20446;-72
2022/04/05 00:54:23;;;;;;;7.37;4.70;;;6.90;1.00;;;;;;4995632;28;20859;-72
2022/04/05 00:56:51;;;;;;;5.97;4.60;;;7.00;1.00;;;;;;4995374;28;20421;-71
2022/04/05 00:59:19;;;;;;;6.23;2.93;;;7.00;1.00;;;;;;4994978;28;20827;-73
2022/04/05 01:01:46;;;;;;;9.87;4.87;;;7.00;1.00;;;;;;4994926;28;20499;-72
2022/04/05 01:04:12;;;;;;;8.10;3.77;;;7.00;1.00;;;;;;4995000;28;20456;-72
2022/04/05 01:06:44;;;;;;;9.13;4.50;;;7.00;1.00;;;;;;4994823;28;20437;-73
2022/04/05 01:09:11;;;;;;;5.13;4.00;;;7.00;1.00;;;;;;4995317;28;20491;-73
2022/04/05 01:11:37;;;;;;;3.60;3.30;;;;;;;;;;4994658;28;20946;-76
2022/04/05 01:14:04;;;;;;;5.13;4.00;;;7.00;1.00;;;;;;4993515;28;20427;-74
2022/04/05 01:16:31;;;;;;;3.23;2.63;;;7.00;1.00;;;;;;4994808;28;20491;-74
2022/04/05 01:18:57;;;;;;;4.97;3.40;;;7.00;1.00;;;;;;4994769;28;20433;-74
2022/04/05 01:21:23;;;;;;;4.87;4.00;;;7.00;1.00;;;;;;4994922;28;20499;-73
2022/04/05 01:24:13;;;;;;;7.17;5.30;;;7.00;1.00;;;;;;4995001;28;20469;-72
2022/04/05 01:26:44;;;;;;;9.73;5.67;;;7.00;1.00;;;;;;4994886;28;20504;-72
2022/04/05 01:29:10;;;;;;;5.63;4.60;;;7.00;1.00;;;;;;4994699;28;20763;-73
2022/04/05 01:31:47;;;;;;;4.37;3.40;;;7.10;1.00;;;;;;4994310;28;20423;-73
2022/04/05 01:34:15;;;;;;;5.30;4.00;;;7.10;1.00;;;;;;4983217;28;20428;-72
2022/04/05 01:36:46;;;;;;;9.07;5.30;;;7.10;1.00;;;;;;4994672;28;20452;-72
2022/04/05 01:39:15;;;;;;;5.30;2.97;;;7.10;1.00;;;;;;4995094;28;20928;-72
2022/04/05 01:41:41;;;;;;;7.20;4.73;;;7.10;1.00;;;;;;4994199;28;20475;-73
2022/04/05 01:44:08;;;;;;;3.63;3.30;;;7.10;1.00;;;;;;4994226;28;20412;-74
2022/04/05 01:46:34;;;;;;;5.70;4.90;;;7.10;1.00;;;;;;4994440;28;20456;-73
2022/04/05 01:49:00;;;;;;;6.00;4.83;;;;;;;;;;4993917;28;20479;-74
2022/04/05 01:51:27;;;;;;;3.97;3.33;;;;;;;;;;4994698;28;20468;-73
2022/04/05 01:53:57;;;;;;;5.50;4.43;;;;;;;;;;4994204;28;20419;-72
2022/04/05 01:56:23;;;;;;;4.67;4.10;;;;;;;;;;4994199;28;20395;-72
2022/04/05 01:58:50;;;;;;;4.13;3.13;;;;;;;;;;4994191;28;20417;-73
2022/04/05 02:01:18;;;;;;;3.77;3.30;;;7.00;1.00;;;;;;4994532;28;20461;-73
2022/04/05 02:03:44;;;;;;;6.40;4.07;;;;;;;;;;4993960;28;20443;-72
2022/04/05 02:06:10;;;;;;;5.23;4.70;;;7.00;1.00;;;;;;4993993;28;20429;-73
2022/04/05 02:08:35;;;;;;;7.20;4.40;;;7.00;1.00;;;;;;4994266;28;20463;-73
2022/04/05 02:11:01;;;;;;;8.93;5.57;;;;;;;;;;4993841;28;20595;-74
2022/04/05 02:13:27;;;;;;;6.53;5.10;;;;;;;;;;4994389;28;20767;-74
2022/04/05 02:15:53;;;;;;;9.80;4.27;;;7.00;1.00;;;;;;4993813;28;20412;-74
2022/04/05 02:18:19;;;;;;;4.30;3.70;;;;;;;;;;4993871;28;20460;-74
2022/04/05 02:20:44;;;;;;;13.17;5.37;;;7.00;1.00;;;;;;4993738;28;20209;-74
2022/04/05 02:23:10;;;;;;;5.83;3.93;;;;;;;;;;4993025;28;20433;-74
2022/04/05 02:25:36;;;;;;;8.43;6.07;;;7.00;1.00;;;;;;4994070;28;20189;-72
2022/04/05 02:28:02;;;;;;;2.73;2.50;;;;;;;;;;4993686;28;20781;-72
2022/04/05 02:30:28;;;;;;;3.43;3.10;;;7.00;1.00;;;;;;4993593;28;20186;-72
2022/04/05 02:32:53;;;;;;;7.17;4.73;;;7.00;1.00;;;;;;4993815;28;20433;-72
2022/04/05 02:35:19;;;;;;;5.23;4.73;;;;;;;;;;4993626;28;20264;-72
2022/04/05 02:37:45;;;;;;;11.73;4.30;;;7.00;1.00;;;;;;4993265;28;20436;-72
2022/04/05 02:40:11;;;;;;;6.00;4.67;;;7.00;1.00;;;;;;4993797;28;20464;-74
2022/04/05 02:42:39;;;;;;;6.43;5.40;;;7.00;1.00;;;;;;4993091;28;20178;-74
2022/04/05 02:45:05;;;;;;;7.23;5.73;;;7.00;1.00;;;;;;4993066;28;20441;-74
2022/04/05 02:47:31;;;;;;;3.70;3.40;;;7.00;1.00;;;;;;4993426;28;20445;-74
2022/04/05 02:49:57;;;;;;;3.43;3.13;;;;;;;;;;4993298;28;20519;-74
2022/04/05 02:52:23;;;;;;;6.37;4.20;;;7.00;1.00;;;;;;4993162;28;20277;-74
2022/04/05 02:54:49;;;;;;;9.73;5.20;;;;;;;;;;4993262;28;20449;-72
2022/04/05 02:57:18;;;;;;;5.23;4.73;;;7.00;1.00;;;;;;4992982;28;20173;-73
2022/04/05 02:59:44;;;;;;;5.10;4.60;;;7.00;1.00;;;;;;4993101;28;20421;-72
2022/04/05 03:02:09;;;;;;;5.33;3.43;;;7.00;1.00;;;;;;4993351;28;21015;-72
2022/04/05 03:04:36;;;;;;;5.30;2.70;;;;;;;;;;4992995;28;20177;-73
2022/04/05 03:07:03;;;;;;;3.50;2.70;;;7.00;1.00;;;;;;4993139;28;20181;-72
2022/04/05 03:09:29;;;;;;;4.70;4.20;;;;;;;;;;4993726;28;20409;-72
2022/04/05 03:11:55;;;;;;;3.97;3.40;;;7.10;1.00;;;;;;4992796;28;20787;-73
2022/04/05 03:14:21;;;;;;;8.90;4.53;;;7.00;1.00;;;;;;5002241;28;20439;-72
2022/04/05 03:16:47;;;;;;;5.80;3.70;;;;;;;;;;4993177;28;20269;-72
2022/04/05 03:19:13;;;;;;;3.10;2.80;;;7.10;1.00;;;;;;4992950;28;20405;-72
2022/04/05 03:21:39;;;;;;;4.13;3.70;;;;;;;;;;4993021;28;21033;-72
2022/04/05 03:24:05;;;;;;;3.53;2.83;;;7.10;1.00;;;;;;4993226;28;20658;-73
2022/04/05 03:26:31;;;;;;;3.87;3.57;;;7.10;1.00;;;;;;4993047;28;20923;-72
2022/04/05 03:28:57;;;;;;;6.33;4.13;;;;;;;;;;4991827;28;20437;-72
2022/04/05 03:31:23;;;;;;;4.10;3.70;;;7.10;1.00;;;;;;4992633;28;20185;-72
2022/04/05 03:33:49;;;;;;;6.27;4.70;;;7.10;1.00;;;;;;4992863;28;20436;-72
2022/04/05 03:36:14;;;;;;;5.00;4.50;;;7.10;1.00;;;;;;4995437;28;20818;-72
2022/04/05 03:38:40;;;;;;;4.80;4.30;;;7.00;1.00;;;;;;4996949;28;20504;-72
2022/04/05 03:41:05;;;;;;;5.67;3.80;;;7.10;1.00;;;;;;4996845;28;20616;-75
2022/04/05 03:43:32;;;;;;;4.90;4.13;;;7.10;1.00;;;;;;4996508;28;20174;-74
2022/04/05 03:45:57;;;;;;;4.23;3.83;;;7.10;1.00;;;;;;4996208;28;20217;-73
2022/04/05 03:48:23;;;;;;;4.83;3.97;;;7.10;1.00;;;;;;4996206;28;20411;-73
2022/04/05 03:50:49;;;;;;;3.90;3.60;;;;;;;;;;4993891;28;20265;-74
2022/04/05 03:53:15;;;;;;;3.50;3.20;;;7.10;1.00;;;;;;4986444;28;20252;-73
2022/04/05 03:55:42;;;;;;;3.17;2.97;;;7.10;1.00;;;;;;4996559;28;20421;-74
2022/04/05 03:58:08;;;;;;;4.20;3.10;;;7.10;1.00;;;;;;4996468;28;20233;-76
2022/04/05 04:00:34;;;;;;;5.40;4.43;;;7.10;1.00;;;;;;4995864;28;20456;-74
2022/04/05 04:02:59;;;;;;;5.30;3.90;;;7.20;1.00;;;;;;4996415;28;20189;-75
2022/04/05 04:05:25;;;;;;;3.73;3.40;;;7.20;1.00;;;;;;4995970;28;20219;-74
2022/04/05 04:07:51;;;;;;;7.10;4.07;;;7.20;1.00;;;;;;4996321;28;20181;-74
2022/04/05 04:10:17;;;;;;;3.00;2.80;;;7.20;1.00;;;;;;4996199;28;20588;-72
2022/04/05 04:12:42;;;;;;;2.30;1.93;;;7.20;1.00;;;;;;5002214;28;20482;-73
2022/04/05 04:15:08;;;;;;;4.20;3.70;;;7.10;1.00;;;;;;4999944;28;20190;-72
2022/04/05 04:17:34;;;;;;;3.33;3.10;;;7.20;1.00;;;;;;4996129;28;20185;-72
2022/04/05 04:20:00;;;;;;;3.03;2.77;;;7.20;1.00;;;;;;4995709;28;20833;-73
2022/04/05 04:22:27;;;;;;;5.50;3.20;;;7.20;1.00;;;;;;4995996;28;20375;-72
2022/04/05 04:24:53;;;;;;;2.63;2.43;;;7.10;1.00;;;;;;4995966;28;20192;-72
2022/04/05 04:27:18;;;;;;;2.67;2.13;;;7.20;1.00;;;;;;4996172;28;20752;-72
2022/04/05 04:29:44;;;;;;;4.03;3.17;;;7.10;1.00;;;;;;4995769;28;20417;-72
2022/04/05 04:32:10;;;;;;;2.73;2.53;;;7.10;1.00;;;;;;4995423;28;20189;-73
2022/04/05 04:34:36;;;;;;;3.53;2.50;;;;;;;;;;4995418;28;20595;-72
2022/04/05 04:37:03;;;;;;;3.80;3.50;;;7.20;1.00;;;;;;4995743;28;20193;-72
2022/04/05 04:39:29;;;;;;;5.87;4.50;;;7.20;1.00;;;;;;4995705;28;20499;-73
2022/04/05 04:41:57;;;;;;;4.07;3.70;;;7.20;1.00;;;;;;4995344;28;20959;-73
2022/04/05 04:44:23;;;;;;;4.77;3.70;;;;;;;;;;4994858;28;20200;-73
2022/04/05 04:46:49;;;;;;;2.27;1.73;;;;;;;;;;4995126;28;20413;-74
2022/04/05 04:49:15;;;;;;;5.87;3.10;;;7.30;1.00;;;;;;4995145;28;20504;-73
2022/04/05 04:51:40;;;;;;;5.63;4.03;;;7.30;1.00;;;;;;4995595;28;20448;-73
2022/04/05 04:54:06;;;;;;;3.70;3.40;;;7.30;1.00;;;;;;4995123;28;20209;-72
2022/04/05 04:56:32;;;;;;;4.03;3.07;;;;;;;;;;4995555;28;20185;-74
2022/04/05 04:58:58;;;;;;;3.83;3.40;;;7.40;1.00;;;;;;4995287;28;20648;-74
2022/04/05 05:01:23;;;;;;;3.73;3.33;;;7.30;1.00;;;;;;4995031;28;20467;-74
2022/04/05 05:03:49;;;;;;;3.13;2.37;;;7.40;1.00;;;;;;4994989;28;20186;-76
2022/04/05 05:06:15;;;;;;;3.13;2.83;;;7.40;1.00;;;;;;4994883;28;20208;-74
2022/04/05 05:08:40;;;;;;;4.40;4.00;;;7.40;1.00;;;;;;4995156;28;20537;-74
2022/04/05 05:11:06;;;;;;;4.30;3.47;;;7.40;1.00;;;;;;4995466;28;20185;-74
2022/04/05 05:13:31;;;;;;;4.40;4.00;;;7.40;1.00;;;;;;5005753;28;20216;-74
2022/04/05 05:15:58;;;;;;;4.53;3.97;;;7.40;1.00;;;;;;4994253;28;20555;-73
2022/04/05 05:18:24;;;;;;;2.83;2.60;;;7.40;1.00;;;;;;4994818;28;20687;-74
2022/04/05 05:20:49;;;;;;;4.07;3.67;;;7.40;1.00;;;;;;4994698;28;20476;-73
2022/04/05 05:23:15;;;;;;;2.77;2.57;;;7.40;1.00;;;;;;4994833;28;20185;-73
2022/04/05 05:25:41;;;;;;;3.43;3.00;;;7.40;1.00;;;;;;4994700;28;20629;-73
2022/04/05 05:28:06;;;;;;;4.60;3.77;;;7.50;1.00;;;;;;4994706;28;20224;-73
2022/04/05 05:30:33;;;;;;;4.40;3.47;;;7.40;1.00;;;;;;4994807;28;20545;-74
2022/04/05 05:32:58;;;;;;;3.90;3.60;;;7.40;1.00;;;;;;4995189;28;20281;-73
2022/04/05 05:35:24;;;;;;;5.37;3.80;;;7.40;1.00;;;;;;4994398;28;20842;-73
2022/04/05 05:37:50;;;;;;;4.50;4.10;;;7.40;1.00;;;;;;4994788;28;20185;-73
2022/04/05 05:40:17;;;;;;;3.80;3.37;;;7.40;1.00;;;;;;4994578;28;20210;-72
2022/04/05 05:42:50;;;;;;;4.30;3.07;;;7.40;1.00;;;;;;4994015;28;20432;-72
2022/04/05 05:45:17;;;;;;;5.37;4.43;;;7.40;1.00;;;;;;4994027;28;20461;-74
2022/04/05 05:47:42;;;;;;;3.50;3.20;;;7.40;1.00;;;;;;4994406;28;20756;-85
2022/04/05 05:50:12;;;;;;;5.37;3.60;;;7.50;1.00;;;;;;5004025;28;20534;-84
2022/04/05 05:52:40;;;;;;;6.30;3.53;;;7.40;1.00;;;;;;4996318;28;20178;-73
2022/04/05 05:55:07;;;;;;;6.20;4.50;;;;;;;;;;4994363;28;20455;-73
2022/04/05 05:57:34;;;;;;;4.43;3.90;;;7.40;1.00;;;;;;4993767;28;20903;-73
2022/04/05 05:59:59;;;;;;;4.97;3.70;;;7.30;1.00;;;;;;4993807;28;20949;-74
2022/04/05 06:02:25;;;;;;;4.10;3.60;;;;;;;;;;4994120;28;20416;-74
2022/04/05 06:04:51;;;;;;;3.20;2.90;;;;;;;;;;4994200;28;20185;-75
2022/04/05 06:07:17;;;;;;;4.37;3.60;;;;;;;;;;4993665;28;20437;-74
2022/04/05 06:09:43;;;;;;;5.07;3.60;;;;;;;;;;4993591;28;20452;-75
2022/04/05 06:12:09;;;;;;;4.63;4.10;;;;;;;;;;4995428;28;20421;-73
2022/04/05 06:14:35;;;;;;;4.27;3.27;;;7.40;1.00;;;;;;4990989;28;20428;-73
2022/04/05 06:17:01;;;;;;;8.27;4.53;;;;;;;;;;4993775;28;21002;-73
2022/04/05 06:19:26;;;;;;;5.60;3.20;;;7.40;1.00;;;;;;4993680;28;20625;-72
2022/04/05 06:21:52;;;;;;;6.97;4.90;;;;;;;;;;4993650;28;20552;-73
2022/04/05 06:24:19;;;;;;;3.30;2.70;;;7.40;1.00;;;;;;4993789;28;20205;-73
2022/04/05 06:26:44;;;;;;;4.53;4.13;;;7.40;1.00;;;;;;4993594;28;20500;-74
2022/04/05 06:29:10;;;;;;;9.20;4.97;;;7.30;1.00;;;;;;4993149;28;20540;-74
2022/04/05 06:31:36;;;;;;;7.20;5.63;;;7.30;1.00;;;;;;4993619;28;20185;-73
2022/04/05 06:34:02;;;;;;;5.43;4.70;;;7.40;1.00;;;;;;4993652;28;20191;-73
2022/04/05 06:36:31;;;;;;;5.90;5.03;;;7.40;1.00;;;;;;4993026;28;20181;-74
2022/04/05 06:38:57;;;;;;;5.47;3.97;;;7.40;1.00;;;;;;4993528;28;20463;-74
2022/04/05 06:41:23;;;;;;;5.37;4.13;;;;;;;;;;4993381;28;20838;-74
2022/04/05 06:43:49;;;;;;;8.03;5.77;;;;;;;;;;4993312;28;20204;-74
2022/04/05 06:46:15;;;;;;;6.77;5.43;;;7.40;1.00;;;;;;4993382;28;20504;-73
2022/04/05 06:48:41;;;;;;;4.30;3.70;;;7.40;1.00;;;;;;4991830;28;20520;-74
2022/04/05 06:51:07;;;;;;;7.27;5.60;;;;;;;;;;4993335;28;20517;-73
2022/04/05 06:53:33;;;;;;;3.83;3.50;;;7.60;1.00;;;;;;4992314;28;20197;-74
2022/04/05 06:55:59;;;;;;;6.70;5.70;;;7.60;1.00;;;;;;4993650;28;20461;-72
2022/04/05 06:58:25;;;;;;;7.90;5.07;;;7.60;1.00;;;;;;4993332;28;20659;-73
2022/04/05 07:00:50;;;;;;;11.63;6.43;;;7.60;1.00;;;;;;4993105;28;20467;-72
2022/04/05 07:03:16;;;;;;;9.13;5.10;;;7.60;1.00;;;;;;4992096;28;20240;-72
2022/04/05 07:05:42;;;;;;;9.67;5.80;;;;;;;;;;4993207;28;20216;-72
2022/04/05 07:08:10;;;;;;;8.83;6.40;;;7.60;1.00;;;;;;4993372;28;20499;-72
2022/04/05 07:10:37;;;;;;;6.50;4.80;;;7.70;1.00;;;;;;4996872;28;20918;-72
2022/04/05 07:13:03;;;;;;;8.40;6.00;;;7.60;1.00;;;;;;4998423;28;20428;-72
2022/04/05 07:15:29;;;;;;;7.57;5.40;;;7.60;1.00;;;;;;4997183;28;20916;-72
2022/04/05 07:17:54;;;;;;;5.50;4.47;;;7.70;1.00;;;;;;4996929;28;20424;-73
2022/04/05 07:20:20;;;;;;;10.57;6.30;;;;;;;;;;4996395;28;20209;-72
2022/04/05 07:22:49;;;;;;;9.53;6.13;;;7.70;1.00;;;;;;4996703;28;20189;-72
2022/04/05 07:25:16;;;;;;;7.80;3.87;;;7.70;1.00;;;;;;4996279;28;20464;-73
2022/04/05 07:27:46;;;;;;;12.60;6.90;;;;;;;;;;4992170;28;20424;-73
2022/04/05 07:30:13;;;;;;;4.57;3.73;;;;;;;;;;4991688;28;20424;-74
2022/04/05 07:32:43;;;;;;;7.73;5.77;;;7.90;1.00;;;;;;4994078;28;20429;-75
2022/04/05 07:35:13;;;;;;;4.83;4.00;;;7.80;1.00;;;;;;4996814;28;20458;-75
2022/04/05 07:37:39;;;;;;;6.40;5.10;;;;;;;;;;4996746;28;20408;-75
2022/04/05 07:40:08;;;;;;;7.23;5.33;;;7.90;1.00;;;;;;4996274;28;20760;-75
2022/04/05 07:42:36;;;;;;;7.57;5.40;;;7.90;1.00;;;;;;4996915;28;20418;-76
2022/04/05 07:45:03;;;;;;;7.93;5.50;;;7.90;1.00;;;;;;4995876;28;20467;-75
2022/04/05 07:47:29;;;;;;;8.03;5.60;;;8.00;1.00;;;;;;4995481;28;20420;-75
2022/04/05 07:49:54;;;;;;;4.37;3.73;;;8.10;1.00;;;;;;4997133;28;20764;-74
2022/04/05 07:52:20;;;;;;;5.37;4.43;;;8.20;1.00;;;;;;4997492;28;20204;-73
2022/04/05 07:54:48;;;;;;;4.47;3.70;;;8.20;1.00;;;;;;4997402;28;20276;-76
2022/04/05 07:57:18;;;;;;;5.07;4.33;;;8.20;1.00;;;;;;4997687;28;20564;-73
2022/04/05 08:00:06;;;;;;;4.97;4.27;;;8.20;1.00;;;;;;4997374;28;20431;-75
2022/04/05 08:02:31;;;;;;;4.27;3.10;;;8.30;1.00;;;;;;4997374;28;20424;-74
2022/04/05 08:05:00;;;;;;;4.40;4.00;;;8.40;1.00;;;;;;4997214;28;20919;-73
2022/04/05 08:07:26;;;;;;;4.30;3.53;;;;;;;;;;4994890;28;20174;-74
2022/04/05 08:09:52;;;;;;;5.87;3.77;;;8.50;1.00;;;;;;4997123;28;20401;-74
2022/04/05 08:12:18;;;;;;;5.33;4.50;;;8.60;1.00;;;;;;4987227;28;20526;-71
2022/04/05 08:14:44;;;;;;;5.57;4.33;;;;;;;;;;5005036;28;20177;-71
2022/04/05 08:17:10;;;;;;;4.17;3.77;;;;;;;;;;4996837;28;20173;-71
2022/04/05 08:19:35;;;;;;;4.87;3.47;;;9.00;1.00;;;;;;4995901;28;20723;-71
2022/04/05 08:22:01;;;;;;;3.90;3.20;;;9.00;1.00;;;;;;4993575;28;20443;-71
2022/04/05 08:24:27;;;;;;;3.23;3.00;;;9.00;1.00;;;;;;4994374;28;20189;-71
2022/04/05 08:26:53;;;;;;;3.20;2.90;;;9.00;1.00;;;;;;4992549;28;20196;-72
2022/04/05 08:29:18;;;;;;;2.97;2.77;;;8.90;1.00;;;;;;4996817;28;20900;-73
2022/04/05 08:31:44;;;;;;;3.83;3.50;;;;;;;;;;4996122;28;20178;-71
2022/04/05 08:34:10;;;;;;;3.00;2.70;;;9.00;1.00;;;;;;4996536;28;20617;-72
2022/04/05 08:36:36;;;;;;;3.63;3.30;;;9.10;1.00;;;;;;4996266;28;20491;-71
2022/04/05 08:39:02;;;;;;;2.97;2.77;;;;;;;;;;4996625;28;20170;-71
2022/04/05 08:41:29;;;;;;;2.97;2.77;;;9.00;1.00;;;;;;4996114;28;20522;-71
2022/04/05 08:44:16;;;;;;;2.37;2.17;;;9.00;1.00;;;;;;4996474;28;20883;-76
2022/04/05 08:46:42;;;;;;;3.07;2.77;;;8.90;1.00;;;;;;4996512;28;20436;-75
2022/04/05 08:49:11;;;;;;;2.80;2.60;;;9.00;1.00;;;;;;4996378;28;20514;-76
2022/04/05 08:51:37;;;;;;;2.87;2.63;;;9.10;1.00;;;;;;4996892;28;20778;-76
2022/04/05 08:54:12;;;;;;;2.40;2.30;;;9.20;1.00;;;;;;4995957;28;20467;-75
2022/04/05 08:56:42;;;;;;;3.23;3.03;;;9.20;1.00;;;;;;4996326;28;20428;-75
2022/04/05 08:59:08;;;;;;;2.27;2.17;;;9.20;1.00;;;;;;4996574;28;20522;-71
2022/04/05 09:01:36;;;;;;;3.20;3.00;;;9.30;1.00;;;;;;4995828;28;20484;-71
2022/04/05 09:04:04;;;;;;;3.10;2.83;;;9.30;1.00;;;;;;4995538;28;20942;-71
2022/04/05 09:06:32;;;;;;;6.63;2.50;;;9.40;1.00;;;;;;4995657;28;20415;-72
2022/04/05 09:09:09;;;;;;;2.43;2.23;;;9.50;1.00;;;;;;4995839;28;20436;-72
2022/04/05 09:11:35;;;;;;;2.10;2.00;;;;;;;;;;4983554;28;20402;-72
2022/04/05 09:14:06;;;;;;;2.50;2.30;;;9.60;1.00;;;;;;4999140;28;20908;-75
2022/04/05 09:16:34;;;;;;;2.27;2.17;;;9.60;1.00;;;;;;4996106;28;20870;-74
2022/04/05 09:19:35;;;;;;;2.70;2.50;;;9.60;1.00;;;;;;4995963;28;20397;-75
2022/04/05 09:22:03;;;;;;;2.40;2.10;;;9.70;1.00;;;;;;4995851;28;20954;-75
2022/04/05 09:24:43;;;;;;;2.77;2.57;;;9.70;1.00;;;;;;4995549;28;20395;-75
2022/04/05 09:27:12;;;;;;;2.63;2.43;;;9.60;1.00;;;;;;4983688;28;20503;-76
2022/04/05 09:29:47;;;;;;;2.40;2.20;;;9.70;1.00;;;;;;4995912;28;20421;-71
2022/04/05 09:32:35;;;;;;;2.70;2.50;;;9.70;1.00;;;;;;4994678;28;20439;-71
2022/04/05 09:35:01;;;;;;;3.60;2.27;;;9.80;1.00;;;;;;4994894;28;20555;-71
2022/04/05 09:37:30;;;;;;;2.77;2.20;;;9.80;1.00;;;;;;4994807;28;20459;-72
2022/04/05 09:40:24;;;;;;;2.47;2.27;;;9.90;1.00;;;;;;5010215;28;20434;-71
2022/04/05 09:43:07;;;;;;;2.53;2.33;;;10.00;1.00;;;;;;4993095;28;20749;-71
2022/04/05 09:45:48;;;;;;;1.80;1.70;;;10.20;1.00;;;;;;4991522;28;20447;-72
2022/04/05 09:48:19;;;;;;;2.63;2.33;;;10.20;1.00;;;;;;4980412;28;20909;-71
2022/04/05 09:51:09;;;;;;;2.70;2.37;;;10.10;1.00;;;;;;4992819;28;20453;-71
2022/04/05 09:53:43;;;;;;;1.63;1.53;;;10.10;1.00;;;;;;4988554;28;20508;-71
2022/04/05 09:56:09;;;;;;;2.67;2.43;;;;;;;;;;4991478;28;20426;-71
2022/04/05 09:58:44;;;;;;;2.13;2.03;;;10.40;1.00;;;;;;4993360;28;20428;-74
2022/04/05 10:01:11;;;;;;;2.90;2.37;;;;;;;;;;4992318;28;20939;-74
2022/04/05 10:03:55;;;;;;;2.13;1.90;;;10.60;1.00;;;;;;4986261;28;20398;-76
2022/04/05 10:06:21;;;;;;;2.70;2.20;;;;;;;;;;4989846;28;20443;-75
2022/04/05 10:08:48;;;;;;;2.50;2.13;;;10.60;1.00;;;;;;4983399;28;20439;-75
2022/04/05 10:11:14;;;;;;;2.80;2.57;;;10.70;1.00;;;;;;4983097;28;20568;-75
2022/04/05 10:13:42;;;;;;;2.53;2.30;;;10.80;1.00;;;;;;4986565;28;20433;-73
2022/04/05 10:16:20;;;;;;;2.40;2.03;;;10.80;1.00;;;;;;4983631;28;20427;-77
2022/04/05 10:18:49;;;;;;;3.77;1.90;;;10.70;1.00;;;;;;4990852;28;20432;-76
2022/04/05 10:21:16;;;;;;;2.27;2.17;;;10.70;1.00;;;;;;4987157;28;20433;-74
2022/04/05 10:23:43;;;;;;;1.60;1.50;;;;;;;;;;4980202;28;20475;-74
2022/04/05 10:26:17;;;;;;;2.10;2.00;;;10.80;1.00;;;;;;4994405;28;20437;-74
2022/04/05 10:28:45;;;;;;;2.00;1.90;;;10.90;1.00;;;;;;4982965;28;20384;-72
2022/04/05 10:31:19;;;;;;;2.20;2.00;;;11.00;1.00;;;;;;4994377;28;20436;-72
2022/04/05 10:34:16;;;;;;;1.87;1.77;;;11.10;1.00;;;;;;4994452;28;20423;-72
2022/04/05 10:37:08;;;;;;;2.50;2.30;;;11.20;1.00;;;;;;4994113;28;20460;-72
2022/04/05 10:39:34;;;;;;;2.43;2.20;;;11.30;1.00;;;;;;4993264;28;20528;-71
2022/04/05 10:42:08;;;;;;;1.70;1.60;;;11.40;1.00;;;;;;4994230;28;20935;-71
2022/04/05 10:44:36;;;;;;;2.10;1.90;;;11.50;1.00;;;;;;4993604;28;20409;-71
2022/04/05 10:47:04;;;;;;;4.20;2.03;;;11.50;1.00;;;;;;4992492;28;20778;-72
2022/04/05 10:49:39;;;;;;;1.80;1.70;;;11.50;1.00;;;;;;4993158;28;20442;-73
2022/04/05 10:52:09;;;;;;;1.87;1.50;;;11.50;1.00;;;;;;4993141;28;20441;-72
2022/04/05 10:54:41;;;;;;;2.10;2.00;;;11.50;1.00;;;;;;4993161;28;20418;-72
2022/04/05 10:57:26;;;;;;;1.70;1.60;;;11.60;1.00;;;;;;4993107;28;20442;-73
2022/04/05 10:59:58;;;;;;;2.10;2.00;;;11.50;1.00;;;;;;4993998;28;20397;-74
2022/04/05 11:02:30;;;;;;;2.10;1.90;;;11.60;1.00;;;;;;4993289;28;20871;-74
2022/04/05 11:05:14;;;;;;;3.47;1.73;;;11.70;1.00;;;;;;4993019;28;20453;-75
2022/04/05 11:07:52;;;;;;;1.83;1.73;;;11.70;1.00;;;;;;4993186;28;20789;-75
2022/04/05 11:10:25;;;;;;;1.90;1.80;;;11.80;1.00;;;;;;4993061;28;20418;-73
2022/04/05 11:13:08;;;;;;;3.50;2.30;;;12.00;1.00;;;;;;4999236;28;20505;-74
2022/04/05 11:15:45;;;;;;;1.70;1.60;;;12.10;1.00;;;;;;4983625;28;20443;-74
2022/04/05 11:18:15;;;;;;;4.97;2.03;;;12.20;1.00;;;;;;4993071;28;20399;-75
2022/04/05 11:20:42;;;;;;;3.43;1.83;;;12.30;1.00;;;;;;4993152;28;20436;-74
2022/04/05 11:23:08;;;;;;;2.03;1.83;;;12.30;1.00;;;;;;4992454;28;20418;-74
2022/04/05 11:25:35;;;;;;;2.50;2.30;;;;;;;;;;4993176;28;20403;-75
2022/04/05 11:28:14;;;;;;;2.20;2.10;;;12.50;1.00;;;;;;4993010;28;20906;-74
2022/04/05 11:30:51;;;;;;;7.03;2.00;;;12.70;1.00;;;;;;4992047;28;20435;-74
2022/04/05 11:33:26;;;;;;;1.90;1.80;;;12.80;1.00;;;;;;4992506;28;20426;-74
2022/04/05 11:35:59;;;;;;;1.90;1.80;;;13.00;1.00;;;;;;4993010;28;20549;-74
2022/04/05 11:38:32;;;;;;;2.30;2.10;;;13.10;1.00;;;;;;4993051;28;20863;-75
2022/04/05 11:41:05;;;;;;;1.67;1.57;;;13.20;1.00;;;;;;4993037;28;20463;-74
2022/04/05 11:43:38;;;;;;;2.00;1.90;;;13.10;1.00;;;;;;4991998;28;20490;-75
2022/04/05 11:46:07;;;;;;;2.30;2.10;;;13.10;1.00;;;;;;4979571;28;20443;-75
2022/04/05 11:48:33;;;;;;;2.17;2.03;;;13.30;1.00;;;;;;4992662;28;20424;-75
2022/04/05 11:51:01;;;;;;;1.83;1.73;;;13.30;1.00;;;;;;5008166;28;20892;-75
2022/04/05 11:53:29;;;;;;;2.17;2.00;;;13.30;1.00;;;;;;4992329;28;20926;-76
2022/04/05 11:56:17;;;;;;;2.03;1.93;;;13.40;1.00;;;;;;4993276;28;20414;-76
2022/04/05 11:59:05;;;;;;;2.17;1.93;;;13.40;1.00;;;;;;4996355;28;20459;-76
2022/04/05 12:01:36;;;;;;;3.87;2.73;;;13.30;1.00;;;;;;4996388;28;20889;-73
2022/04/05 12:04:08;;;;;;;2.43;2.23;;;13.20;1.00;;;;;;4995988;28;20613;-72
2022/04/05 12:06:39;;;;;;;3.30;2.10;;;13.20;1.00;;;;;;4996279;28;20424;-72
2022/04/05 12:09:08;;;;;;;1.83;1.73;;;13.10;1.00;;;;;;5011145;28;20407;-72
2022/04/05 12:11:36;;;;;;;2.73;2.33;;;13.20;1.00;;;;;;4995918;28;20457;-74
2022/04/05 12:14:09;;;;;;;3.57;2.57;;;13.20;1.00;;;;;;4999351;28;20412;-73
2022/04/05 12:20:24;;;;;;;6.03;2.80;;;13.60;1.00;;;;;;4998194;28;20936;-74
2022/04/05 12:26:24;;;;;;;4.73;2.70;;;13.50;1.00;;;;;;4996591;28;20412;-77
2022/04/05 12:28:50;;;;;;;4.13;2.63;;;;;;;;;;4995620;28;20576;-76
2022/04/05 12:31:26;;;;;;;5.00;3.07;;;13.40;1.00;;;;;;4995655;28;21007;-77
2022/04/05 12:34:05;;;;;;;3.33;2.57;;;13.60;1.00;;;;;;4994088;28;20410;-77
2022/04/05 12:36:33;;;;;;;3.30;2.80;;;13.60;1.00;;;;;;4995881;28;20401;-82
2022/04/05 12:38:59;;;;;;;11.27;3.93;;;;;;;;;;4994926;28;20434;-81
2022/04/05 12:41:25;;;;;;;6.27;3.10;;;;;;;;;;4995698;28;20395;-81
2022/04/05 12:44:12;;;;;;;6.60;2.93;;;13.40;1.00;;;;;;4995240;28;20421;-81
2022/04/05 12:46:58;;;;;;;4.70;3.30;;;13.50;1.00;;;;;;4995919;28;20900;-77
2022/04/05 12:49:38;;;;;;;3.20;2.90;;;13.50;1.00;;;;;;4995444;28;20785;-81
2022/04/05 12:52:26;;;;;;;4.50;2.90;;;13.50;1.00;;;;;;4994609;28;20531;-81
2022/04/05 12:58:32;;;;;;;3.63;3.30;;;13.20;1.00;;;;;;4987994;28;20866;-80
2022/04/05 13:04:22;;;;;;;5.10;3.00;;;13.40;1.00;;;;;;4995829;28;20420;-79
2022/04/05 13:10:12;;;;;;;4.00;3.10;;;13.50;1.00;;;;;;4995045;28;20527;-76
2022/04/05 13:12:38;;;;;;;32.37;8.50;;;;;;;;;;4991872;28;20737;-78
2022/04/05 13:15:11;;;;;;;3.20;3.00;;;13.80;1.00;;;;;;4993431;28;20864;-78
2022/04/05 13:17:37;;;;;;;7.50;4.33;;;;;;;;;;4994729;28;20917;-78
2022/04/05 13:20:07;;;;;;;4.10;3.70;;;14.30;1.00;;;;;;4994609;28;20937;-79
2022/04/05 13:22:34;;;;;;;5.83;4.37;;;;;;;;;;4994868;28;20399;-79
2022/04/05 13:25:00;;;;;;;4.20;3.53;;;;;;;;;;4992899;28;20532;-78
2022/04/05 13:27:26;;;;;;;4.20;3.73;;;;;;;;;;4994725;28;20826;-78
2022/04/05 13:29:52;;;;;;;5.33;3.37;;;;;;;;;;4994593;28;20858;-84
2022/04/05 13:32:20;;;;;;;3.97;3.40;;;14.10;1.00;;;;;;4994259;28;20496;-84
2022/04/05 13:34:46;;;;;;;6.70;3.67;;;14.00;1.00;;;;;;4995168;28;20407;-83
2022/04/05 13:37:18;;;;;;;4.20;3.50;;;13.90;1.00;;;;;;5010118;28;20436;-86
2022/04/05 13:39:52;;;;;;;5.13;3.63;;;13.90;1.00;;;;;;4994273;28;20986;-83
2022/04/05 13:42:18;;;;;;;4.07;3.67;;;;;;;;;;4994794;28;20398;-80
2022/04/05 13:44:45;;;;;;;4.77;3.50;;;;;;;;;;4994440;28;20967;-81
2022/04/05 13:47:11;;;;;;;7.90;4.17;;;;;;;;;;4994793;28;20395;-75